Time;durP1;ratioP1;P1;durP2;ratioP2;P2;SDS_P1;SDS_P2;PMS_P1;PMS_P2;Temp;Humidity;BMP_temperature;BMP_pressure;BME280_temperature;BME280_humidity;BME280_pressure;Samples;Min_cycle;Max_cycle;Signal;HPM_P1;HPM_P2
2022/04/18 00:02:17;;;;;;;10.03;4.73;;;8.50;63.90;;;;;;5062266;28;20560;-80
2022/04/18 00:04:44;;;;;;;5.87;4.93;;;8.50;64.50;;;;;;5062606;28;20209;-81
2022/04/18 00:07:12;;;;;;;8.30;4.30;;;8.50;65.30;;;;;;5058045;28;20253;-80
2022/04/18 00:09:39;;;;;;;5.70;3.73;;;8.50;64.10;;;;;;5059343;28;20233;-81
2022/04/18 00:12:07;;;;;;;7.07;4.70;;;8.40;63.70;;;;;;5064180;28;20653;-81
2022/04/18 00:14:34;;;;;;;10.37;4.33;;;8.40;63.50;;;;;;5068611;28;20198;-81
2022/04/18 00:17:02;;;;;;;7.00;4.67;;;8.40;64.20;;;;;;5068235;28;20230;-82
2022/04/18 00:19:29;;;;;;;5.97;4.67;;;8.40;63.30;;;;;;5069709;28;20260;-81
2022/04/18 00:21:59;;;;;;;7.40;4.50;;;8.40;63.20;;;;;;5068631;28;20205;-81
2022/04/18 00:24:26;;;;;;;9.80;4.60;;;8.40;63.80;;;;;;5063894;28;20286;-81
2022/04/18 00:26:54;;;;;;;8.83;4.73;;;8.40;63.90;;;;;;5063548;28;20220;-82
2022/04/18 00:29:21;;;;;;;10.00;5.00;;;8.30;63.40;;;;;;5082896;28;20206;-81
2022/04/18 00:31:49;;;;;;;9.10;5.03;;;8.30;63.30;;;;;;5069335;28;20208;-82
2022/04/18 00:34:16;;;;;;;6.83;4.93;;;8.20;63.60;;;;;;5072107;28;20232;-81
2022/04/18 00:36:45;;;;;;;7.07;4.53;;;8.20;64.10;;;;;;5069623;28;20540;-81
2022/04/18 00:39:12;;;;;;;8.37;4.80;;;8.10;64.50;;;;;;5073180;28;20245;-82
2022/04/18 00:41:39;;;;;;;7.37;4.67;;;8.10;64.60;;;;;;5088231;28;20195;-80
2022/04/18 00:44:07;;;;;;;6.77;5.30;;;8.10;64.80;;;;;;5073108;28;20201;-81
2022/04/18 00:46:34;;;;;;;10.80;5.27;;;8.00;64.30;;;;;;5073708;28;20228;-81
2022/04/18 00:49:02;;;;;;;7.77;5.50;;;8.00;63.90;;;;;;5063435;28;20209;-81
2022/04/18 00:51:29;;;;;;;5.97;5.30;;;8.00;64.00;;;;;;5043722;28;20217;-80
2022/04/18 00:53:58;;;;;;;6.80;5.03;;;7.90;64.20;;;;;;5055583;28;20204;-81
2022/04/18 00:56:26;;;;;;;9.23;5.63;;;7.90;64.30;;;;;;5068359;28;20237;-81
2022/04/18 00:58:55;;;;;;;6.70;4.80;;;7.90;64.20;;;;;;5063113;28;20212;-80
2022/04/18 01:01:23;;;;;;;8.33;5.83;;;7.90;64.10;;;;;;5059801;28;20189;-81
2022/04/18 01:03:55;;;;;;;10.53;5.60;;;7.90;64.40;;;;;;5061673;28;20315;-81
2022/04/18 01:06:23;;;;;;;9.80;5.23;;;7.90;65.20;;;;;;5059053;28;20212;-81
2022/04/18 01:08:52;;;;;;;8.33;5.43;;;7.90;64.90;;;;;;5059751;28;20316;-80
2022/04/18 01:11:20;;;;;;;9.43;5.83;;;7.80;64.40;;;;;;5061417;28;20657;-80
2022/04/18 01:14:06;;;;;;;7.90;5.20;;;7.80;64.00;;;;;;5065959;28;20217;-81
2022/04/18 01:16:53;;;;;;;7.10;5.37;;;7.80;64.00;;;;;;5062689;28;20710;-81
2022/04/18 01:19:21;;;;;;;7.57;5.07;;;7.80;64.20;;;;;;5064757;28;20213;-82
2022/04/18 01:22:15;;;;;;;6.40;5.10;;;7.70;64.70;;;;;;5051435;28;20216;-81
2022/04/18 01:30:44;;;;;;;5.53;4.73;;;7.70;64.50;;;;;;5079367;28;20210;-81
2022/04/18 01:33:12;;;;;;;6.63;5.47;;;7.70;64.10;;;;;;5063630;28;20193;-82
2022/04/18 01:35:42;;;;;;;7.07;5.07;;;7.60;64.10;;;;;;5078680;28;20228;-82
2022/04/18 01:38:09;;;;;;;6.47;5.03;;;7.60;64.40;;;;;;5064301;28;20194;-81
2022/04/18 01:40:36;;;;;;;7.93;4.77;;;7.60;64.50;;;;;;5063395;28;20226;-83
2022/04/18 01:43:08;;;;;;;5.40;4.80;;;7.60;64.30;;;;;;5060062;28;20216;-83
2022/04/18 01:45:38;;;;;;;5.50;4.90;;;7.60;64.30;;;;;;5075703;28;20216;-82
2022/04/18 01:48:14;;;;;;;5.97;5.30;;;7.60;65.30;;;;;;5064688;28;20217;-81
2022/04/18 01:50:42;;;;;;;6.17;4.97;;;7.60;65.30;;;;;;5067114;28;20297;-81
2022/04/18 01:53:10;;;;;;;5.47;4.97;;;7.60;65.70;;;;;;5067172;28;20298;-81
2022/04/18 01:55:40;;;;;;;7.37;4.93;;;7.50;65.70;;;;;;5062361;28;20239;-80
2022/04/18 01:58:08;;;;;;;5.47;4.97;;;7.50;65.50;;;;;;5067523;28;20203;-81
2022/04/18 02:00:35;;;;;;;6.73;5.53;;;7.50;65.60;;;;;;5078549;28;20267;-81
2022/04/18 02:03:03;;;;;;;7.47;5.40;;;7.40;65.50;;;;;;5063725;28;20537;-80
2022/04/18 02:05:31;;;;;;;5.73;4.87;;;7.40;65.80;;;;;;5067658;28;20255;-81
2022/04/18 02:07:58;;;;;;;5.47;4.30;;;7.40;66.00;;;;;;5066034;28;20279;-81
2022/04/18 02:10:26;;;;;;;6.67;4.57;;;7.40;66.50;;;;;;5050158;28;20237;-81
2022/04/18 02:12:54;;;;;;;9.70;5.40;;;7.40;66.70;;;;;;5066399;28;20236;-81
2022/04/18 02:15:22;;;;;;;7.33;4.80;;;7.40;66.20;;;;;;5044433;28;20284;-81
2022/04/18 02:18:00;;;;;;;9.80;4.70;;;7.40;66.00;;;;;;5068237;28;20213;-81
2022/04/18 02:20:28;;;;;;;6.10;4.53;;;7.30;65.90;;;;;;5069736;28;20271;-81
2022/04/18 02:22:59;;;;;;;6.50;4.63;;;7.30;66.60;;;;;;5068204;28;20255;-81
2022/04/18 02:25:26;;;;;;;6.50;4.77;;;7.20;66.90;;;;;;5066632;28;20209;-82
2022/04/18 02:27:59;;;;;;;6.67;5.57;;;7.20;67.00;;;;;;5066048;28;20223;-81
2022/04/18 02:30:28;;;;;;;5.20;4.70;;;7.20;67.40;;;;;;5080732;28;20202;-80
2022/04/18 02:32:56;;;;;;;8.73;4.97;;;7.20;67.20;;;;;;5064865;28;20209;-81
2022/04/18 02:35:24;;;;;;;9.50;4.90;;;7.10;67.40;;;;;;5084815;28;20208;-81
2022/04/18 02:37:57;;;;;;;9.87;4.93;;;7.10;67.40;;;;;;5082195;28;20272;-82
2022/04/18 02:40:34;;;;;;;7.87;5.57;;;7.00;67.20;;;;;;5085407;28;20219;-81
2022/04/18 02:43:02;;;;;;;9.63;4.73;;;7.00;67.30;;;;;;5068252;28;20208;-81
2022/04/18 02:45:31;;;;;;;7.97;5.33;;;7.00;67.30;;;;;;5085891;28;20300;-81
2022/04/18 02:48:17;;;;;;;7.07;5.77;;;7.00;67.50;;;;;;5073925;28;21022;-81
2022/04/18 02:50:48;;;;;;;5.63;5.10;;;7.00;67.90;;;;;;5065684;28;20187;-80
2022/04/18 02:53:20;;;;;;;5.70;5.07;;;6.90;68.10;;;;;;5064474;28;20241;-81
2022/04/18 02:55:55;;;;;;;8.50;5.07;;;7.00;68.60;;;;;;5063523;28;20221;-80
2022/04/18 02:58:23;;;;;;;7.67;5.43;;;6.90;68.70;;;;;;5062205;28;20303;-81
2022/04/18 03:00:51;;;;;;;7.03;5.90;;;6.80;69.40;;;;;;5059380;28;20568;-80
2022/04/18 03:03:18;;;;;;;10.77;5.57;;;6.80;69.00;;;;;;5079352;28;20619;-80
2022/04/18 03:05:46;;;;;;;6.73;5.97;;;6.80;69.20;;;;;;5065245;28;20220;-80
2022/04/18 03:08:14;;;;;;;10.13;6.40;;;6.70;69.00;;;;;;5066244;28;20679;-81
2022/04/18 03:13:29;;;;;;;10.57;6.63;;;6.70;68.90;;;;;;5079474;28;20226;-80
2022/04/18 03:15:57;;;;;;;7.97;7.07;;;6.70;69.30;;;;;;5082338;28;20230;-82
2022/04/18 03:18:26;;;;;;;11.03;7.00;;;6.70;69.50;;;;;;5047933;28;20633;-79
2022/04/18 03:20:54;;;;;;;13.17;7.27;;;6.70;69.70;;;;;;5060890;28;20209;-81
2022/04/18 03:23:21;;;;;;;12.97;7.50;;;6.70;69.60;;;;;;5080058;28;20202;-80
2022/04/18 03:26:09;;;;;;;15.80;8.50;;;6.60;69.30;;;;;;5059481;28;20222;-80
2022/04/18 03:28:58;;;;;;;11.60;7.60;;;6.60;69.30;;;;;;5078202;28;20304;-80
2022/04/18 03:31:25;;;;;;;7.77;6.17;;;6.50;70.00;;;;;;5066901;28;20213;-80
2022/04/18 03:33:53;;;;;;;9.23;7.00;;;6.60;70.40;;;;;;5066993;28;20221;-81
2022/04/18 03:41:52;;;;;;;23.00;8.87;;;6.50;70.40;;;;;;5080409;28;20391;-82
2022/04/18 03:44:19;;;;;;;14.23;7.80;;;6.50;70.80;;;;;;5068452;28;20207;-81
2022/04/18 03:46:47;;;;;;;16.73;8.93;;;6.50;70.90;;;;;;5069261;28;20259;-81
2022/04/18 03:49:15;;;;;;;8.63;7.17;;;6.50;70.90;;;;;;5070693;28;20197;-81
2022/04/18 03:51:46;;;;;;;17.63;7.43;;;6.40;71.20;;;;;;5067993;28;20206;-81
2022/04/18 03:54:14;;;;;;;16.23;8.00;;;6.50;71.10;;;;;;5080695;28;20310;-81
2022/04/18 03:56:42;;;;;;;12.10;7.67;;;6.40;70.80;;;;;;5084160;28;20229;-81
2022/04/18 03:59:09;;;;;;;10.23;7.60;;;6.40;70.80;;;;;;5070096;28;20216;-82
2022/04/18 04:01:53;;;;;;;12.93;7.43;;;6.40;70.90;;;;;;5085465;28;20350;-81
2022/04/18 04:04:21;;;;;;;11.70;7.10;;;6.40;70.90;;;;;;5069558;28;20197;-80
2022/04/18 04:06:49;;;;;;;11.10;7.40;;;6.40;71.20;;;;;;5065635;28;20458;-80
2022/04/18 04:09:18;;;;;;;14.87;8.17;;;6.40;71.40;;;;;;5062208;28;20215;-80
2022/04/18 04:11:45;;;;;;;10.33;7.53;;;6.40;71.40;;;;;;5062667;28;21180;-80
2022/04/18 04:14:13;;;;;;;8.50;7.00;;;6.40;71.40;;;;;;5064022;28;20223;-81
2022/04/18 04:16:41;;;;;;;13.63;6.47;;;6.40;71.60;;;;;;5061381;28;20256;-80
2022/04/18 04:19:08;;;;;;;13.03;7.60;;;6.40;71.30;;;;;;5063803;28;20201;-81
2022/04/18 04:21:36;;;;;;;12.87;7.27;;;6.30;71.00;;;;;;5061363;28;20205;-80
2022/04/18 04:24:05;;;;;;;11.17;7.57;;;6.30;71.30;;;;;;5065461;28;20213;-81
2022/04/18 04:26:45;;;;;;;13.77;7.90;;;6.30;71.50;;;;;;5067040;28;20278;-82
2022/04/18 04:29:18;;;;;;;14.53;7.87;;;6.30;71.70;;;;;;5066221;28;20208;-81
2022/04/18 04:32:10;;;;;;;9.70;7.40;;;6.30;71.70;;;;;;5068425;28;20213;-81
2022/04/18 04:34:41;;;;;;;12.63;7.47;;;6.30;71.30;;;;;;5067685;28;20221;-80
2022/04/18 04:37:36;;;;;;;15.77;7.70;;;6.30;71.00;;;;;;5067415;28;20237;-81
2022/04/18 04:40:33;;;;;;;7.30;6.60;;;6.20;71.40;;;;;;5060101;28;20240;-81
2022/04/18 04:43:03;;;;;;;10.63;7.60;;;6.20;71.70;;;;;;5067295;28;20196;-81
2022/04/18 04:45:33;;;;;;;14.90;8.87;;;6.20;71.80;;;;;;5080657;28;20216;-81
2022/04/18 04:48:24;;;;;;;8.87;6.90;;;6.20;71.80;;;;;;5066842;28;20268;-80
2022/04/18 04:50:55;;;;;;;9.70;6.90;;;6.20;71.70;;;;;;5081913;28;20220;-80
2022/04/18 04:53:22;;;;;;;9.27;6.80;;;6.30;71.00;;;;;;5068064;28;20230;-81
2022/04/18 04:55:50;;;;;;;12.93;7.23;;;6.30;70.90;;;;;;5065219;28;20215;-82
2022/04/18 04:58:18;;;;;;;12.57;8.17;;;6.30;71.00;;;;;;5070253;28;20316;-82
2022/04/18 05:01:07;;;;;;;11.10;7.40;;;6.30;71.40;;;;;;5073034;28;20227;-81
2022/04/18 05:03:49;;;;;;;9.23;6.80;;;6.40;71.40;;;;;;5069158;28;20213;-82
2022/04/18 05:06:16;;;;;;;11.80;8.20;;;6.40;71.50;;;;;;5068374;28;20239;-82
2022/04/18 05:08:46;;;;;;;8.53;7.63;;;6.50;71.50;;;;;;5070109;28;20225;-82
2022/04/18 05:11:15;;;;;;;8.90;7.07;;;6.50;71.40;;;;;;5066315;28;20217;-82
2022/04/18 05:13:47;;;;;;;9.00;6.87;;;6.60;71.20;;;;;;5068817;28;20541;-80
2022/04/18 05:16:16;;;;;;;11.33;7.10;;;6.80;71.10;;;;;;5067954;28;20215;-80
2022/04/18 05:18:51;;;;;;;9.40;7.57;;;7.10;70.60;;;;;;5066865;28;20223;-81
2022/04/18 05:21:18;;;;;;;8.40;7.13;;;7.60;69.60;;;;;;5080636;28;20190;-81
2022/04/18 05:23:48;;;;;;;9.00;6.43;;;8.30;67.50;;;;;;5080843;28;20236;-81
2022/04/18 05:26:15;;;;;;;8.57;6.10;;;9.00;65.80;;;;;;5080057;28;20255;-81
2022/04/18 05:28:45;;;;;;;8.17;6.50;;;9.40;63.60;;;;;;5065660;28;20189;-81
2022/04/18 05:31:17;;;;;;;10.40;7.30;;;9.70;62.80;;;;;;5064509;28;20273;-81
2022/04/18 05:33:45;;;;;;;7.77;6.87;;;9.80;62.10;;;;;;5066639;28;20194;-81
2022/04/18 05:36:19;;;;;;;12.23;7.43;;;9.90;61.80;;;;;;5068798;28;20839;-80
2022/04/18 05:38:47;;;;;;;9.93;7.37;;;9.70;61.80;;;;;;5062021;28;20262;-80
2022/04/18 05:41:20;;;;;;;9.93;7.40;;;9.60;62.60;;;;;;5060662;28;20297;-81
2022/04/18 05:43:49;;;;;;;11.67;7.00;;;9.50;63.20;;;;;;5064458;28;20198;-81
2022/04/18 05:46:22;;;;;;;14.47;7.67;;;9.40;63.10;;;;;;5078842;28;20198;-82
2022/04/18 05:48:49;;;;;;;10.43;7.03;;;9.30;63.10;;;;;;5060568;28;20229;-80
2022/04/18 05:51:16;;;;;;;9.13;6.93;;;9.30;63.70;;;;;;5076876;28;20207;-81
2022/04/18 05:53:43;;;;;;;9.83;6.57;;;9.30;63.90;;;;;;5061204;28;20206;-81
2022/04/18 05:56:22;;;;;;;11.37;7.23;;;9.40;64.20;;;;;;5062365;28;20207;-81
2022/04/18 05:58:54;;;;;;;9.23;7.37;;;9.50;63.80;;;;;;5062859;28;20210;-81
2022/04/18 06:01:52;;;;;;;11.73;7.27;;;9.60;63.30;;;;;;5061541;28;20413;-80
2022/04/18 06:04:31;;;;;;;11.97;7.77;;;9.70;63.20;;;;;;5057874;28;20202;-81
2022/04/18 06:07:17;;;;;;;12.93;6.60;;;9.80;63.60;;;;;;5070506;28;20291;-80
2022/04/18 06:09:50;;;;;;;7.77;6.97;;;9.90;63.20;;;;;;5061888;28;20646;-80
2022/04/18 06:12:21;;;;;;;9.40;6.07;;;10.00;63.30;;;;;;5079638;28;20214;-81
2022/04/18 06:14:51;;;;;;;10.90;7.53;;;10.20;63.50;;;;;;5075921;28;20195;-80
2022/04/18 06:17:19;;;;;;;10.07;7.50;;;10.30;63.40;;;;;;5075633;28;20223;-81
2022/04/18 06:19:49;;;;;;;13.10;7.73;;;10.50;63.10;;;;;;5061085;28;20620;-81
2022/04/18 06:22:19;;;;;;;9.90;7.53;;;10.70;62.50;;;;;;5061281;28;20645;-82
2022/04/18 06:24:46;;;;;;;12.43;7.37;;;10.80;62.00;;;;;;5064924;28;20200;-82
2022/04/18 06:27:21;;;;;;;10.37;7.37;;;10.90;61.50;;;;;;5062666;28;20778;-81
2022/04/18 06:29:49;;;;;;;12.20;8.30;;;11.10;61.40;;;;;;5067688;28;20199;-82
2022/04/18 06:32:17;;;;;;;9.00;6.90;;;11.30;61.20;;;;;;5061941;28;20203;-83
2022/04/18 06:34:47;;;;;;;10.23;7.50;;;11.40;60.00;;;;;;5069957;28;20213;-80
2022/04/18 06:37:21;;;;;;;12.10;7.87;;;11.60;59.70;;;;;;5064999;28;20246;-81
2022/04/18 06:39:59;;;;;;;8.97;6.53;;;11.70;59.40;;;;;;5068632;28;20207;-81
2022/04/18 06:42:37;;;;;;;11.10;7.13;;;11.90;60.20;;;;;;5071752;28;20216;-81
2022/04/18 06:45:12;;;;;;;9.17;7.37;;;12.10;59.50;;;;;;5068280;28;20225;-81
2022/04/18 06:47:39;;;;;;;9.67;7.87;;;12.20;59.50;;;;;;5074407;28;20475;-81
2022/04/18 06:50:13;;;;;;;15.07;7.67;;;12.40;59.40;;;;;;5064720;28;20204;-83
2022/04/18 06:52:49;;;;;;;9.17;6.90;;;12.60;59.10;;;;;;5069247;28;20242;-82
2022/04/18 06:58:30;;;;;;;9.23;6.77;;;13.00;57.80;;;;;;5064641;28;20257;-80
2022/04/18 07:00:59;;;;;;;10.97;7.60;;;13.20;56.80;;;;;;5062674;28;20212;-82
2022/04/18 07:03:28;;;;;;;17.20;7.50;;;13.30;56.10;;;;;;5052427;28;20289;-82
2022/04/18 07:05:56;;;;;;;7.97;7.17;;;13.40;55.50;;;;;;5070734;28;20704;-81
2022/04/18 07:08:24;;;;;;;8.57;6.80;;;13.60;55.80;;;;;;5066749;28;20251;-80
2022/04/18 07:10:54;;;;;;;8.77;6.40;;;13.70;55.90;;;;;;5061882;28;20227;-81
2022/04/18 07:13:21;;;;;;;9.03;6.27;;;13.90;55.60;;;;;;5065116;28;20209;-81
2022/04/18 07:15:49;;;;;;;10.20;7.13;;;14.10;55.30;;;;;;5067159;28;20201;-81
2022/04/18 07:18:18;;;;;;;7.70;5.80;;;14.30;55.10;;;;;;5061390;28;20303;-81
2022/04/18 07:20:47;;;;;;;10.77;5.67;;;14.50;54.40;;;;;;5065283;28;20254;-81
2022/04/18 07:23:17;;;;;;;8.83;6.50;;;14.70;52.90;;;;;;5048578;28;20200;-81
2022/04/18 07:25:55;;;;;;;8.07;6.03;;;14.80;52.20;;;;;;5065289;28;20186;-81
2022/04/18 07:28:27;;;;;;;5.47;4.80;;;14.90;52.40;;;;;;5058709;28;20197;-80
2022/04/18 07:30:56;;;;;;;9.10;3.70;;;15.00;49.80;;;;;;5063464;28;20199;-80
2022/04/18 07:33:24;;;;;;;5.03;2.83;;;15.10;48.70;;;;;;5057062;28;20213;-81
2022/04/18 07:35:52;;;;;;;4.27;3.07;;;15.20;48.10;;;;;;5076468;28;20300;-80
2022/04/18 07:41:05;;;;;;;4.17;3.00;;;15.50;46.40;;;;;;5061263;28;20294;-80
2022/04/18 07:43:38;;;;;;;3.80;3.33;;;15.70;46.80;;;;;;5059987;28;20202;-80
2022/04/18 07:46:10;;;;;;;5.77;3.90;;;15.90;47.40;;;;;;5066239;28;20229;-80
2022/04/18 07:48:38;;;;;;;7.20;3.53;;;16.10;45.30;;;;;;5059365;28;20201;-81
2022/04/18 07:53:55;;;;;;;7.10;3.67;;;16.40;45.10;;;;;;5061886;28;20205;-81
2022/04/18 07:56:22;;;;;;;4.30;3.07;;;16.60;43.80;;;;;;5043501;28;20301;-80
2022/04/18 07:58:50;;;;;;;3.10;2.80;;;16.70;44.70;;;;;;5058468;28;20221;-80
2022/04/18 08:01:27;;;;;;;5.17;3.67;;;16.70;42.80;;;;;;5063721;28;20567;-81
2022/04/18 08:03:57;;;;;;;3.30;2.50;;;16.70;43.50;;;;;;5068758;28;20205;-80
2022/04/18 08:06:24;;;;;;;5.20;2.60;;;16.70;43.60;;;;;;5078169;28;20213;-80
2022/04/18 08:09:14;;;;;;;3.70;2.93;;;16.70;43.70;;;;;;5061358;28;20246;-80
2022/04/18 08:11:42;;;;;;;4.53;2.93;;;16.90;43.60;;;;;;5049123;28;20220;-80
2022/04/18 08:14:11;;;;;;;4.73;2.90;;;17.10;43.90;;;;;;5060213;28;20206;-80
2022/04/18 08:16:46;;;;;;;5.47;2.63;;;17.30;43.40;;;;;;5067774;28;20668;-80
2022/04/18 08:19:35;;;;;;;5.47;3.07;;;17.40;43.50;;;;;;5053797;28;20198;-80
2022/04/18 08:22:04;;;;;;;5.10;3.07;;;17.50;43.20;;;;;;5065587;28;20206;-79
2022/04/18 08:24:44;;;;;;;10.13;3.40;;;17.70;43.20;;;;;;5064057;28;20267;-79
2022/04/18 08:27:30;;;;;;;6.73;2.60;;;17.90;43.00;;;;;;5066918;28;20217;-79
2022/04/18 08:30:07;;;;;;;9.30;3.00;;;18.00;42.10;;;;;;5067174;28;20208;-80
2022/04/18 08:32:58;;;;;;;5.33;2.53;;;18.20;39.80;;;;;;5033167;28;20227;-80
2022/04/18 08:35:26;;;;;;;3.53;2.43;;;18.30;40.50;;;;;;5071233;28;20300;-80
2022/04/18 08:37:53;;;;;;;4.47;2.63;;;18.40;41.60;;;;;;5063792;28;20272;-80
2022/04/18 08:40:44;;;;;;;2.67;2.00;;;18.40;40.00;;;;;;5051980;28;20206;-79
2022/04/18 08:43:11;;;;;;;2.37;1.73;;;18.40;38.40;;;;;;5078284;28;20214;-80
2022/04/18 08:45:39;;;;;;;5.20;2.17;;;18.40;38.70;;;;;;5080180;28;20206;-79
2022/04/18 08:53:39;;;;;;;5.00;2.53;;;18.60;38.20;;;;;;5064948;28;20197;-80
2022/04/18 08:56:10;;;;;;;5.07;2.47;;;18.70;38.20;;;;;;5059476;28;20539;-79
2022/04/18 08:58:40;;;;;;;2.80;2.30;;;18.70;38.20;;;;;;5062869;28;20238;-81
2022/04/18 09:01:13;;;;;;;2.33;2.00;;;18.80;37.50;;;;;;5044959;28;20206;-79
2022/04/18 09:03:46;;;;;;;5.93;2.63;;;18.90;38.30;;;;;;5065689;28;20229;-80
2022/04/18 09:06:16;;;;;;;3.87;2.90;;;18.90;39.40;;;;;;5061375;28;20637;-79
2022/04/18 09:08:57;;;;;;;3.20;2.40;;;19.00;40.10;;;;;;5062885;28;20313;-79
2022/04/18 09:11:37;;;;;;;5.67;2.63;;;19.20;38.90;;;;;;5062649;28;20203;-78
2022/04/18 09:14:12;;;;;;;5.40;2.57;;;19.30;39.30;;;;;;5063219;28;20227;-80
2022/04/18 09:16:42;;;;;;;3.23;2.37;;;19.30;38.60;;;;;;5077907;28;20212;-80
2022/04/18 09:19:20;;;;;;;3.80;2.97;;;19.40;39.20;;;;;;5045740;28;20216;-79
2022/04/18 09:22:00;;;;;;;3.33;2.23;;;19.50;38.40;;;;;;5067535;28;20237;-79
2022/04/18 09:24:58;;;;;;;4.67;2.33;;;19.60;37.80;;;;;;5067635;28;20233;-78
2022/04/18 09:27:32;;;;;;;5.37;2.83;;;19.70;37.40;;;;;;5055740;28;20244;-79
2022/04/18 09:30:10;;;;;;;3.33;2.40;;;19.80;38.10;;;;;;5066728;28;20224;-79
2022/04/18 09:33:00;;;;;;;2.57;2.17;;;19.80;37.00;;;;;;5064396;28;20277;-79
2022/04/18 09:35:44;;;;;;;7.83;2.50;;;19.80;36.80;;;;;;5068663;28;20217;-78
2022/04/18 09:38:17;;;;;;;3.53;2.37;;;19.90;37.40;;;;;;5060198;28;20228;-80
2022/04/18 09:41:04;;;;;;;11.93;2.97;;;19.90;37.00;;;;;;5069476;28;20204;-79
2022/04/18 09:43:40;;;;;;;4.10;2.53;;;19.90;37.00;;;;;;5051213;28;20205;-80
2022/04/18 09:46:10;;;;;;;4.57;2.90;;;19.90;35.60;;;;;;5061854;28;20204;-79
2022/04/18 09:48:44;;;;;;;2.80;2.60;;;19.80;37.80;;;;;;5064384;28;20281;-80
2022/04/18 09:51:22;;;;;;;3.37;2.20;;;19.80;38.80;;;;;;5064139;28;20238;-79
2022/04/18 09:54:00;;;;;;;3.43;2.70;;;19.90;38.00;;;;;;5080071;28;20212;-78
2022/04/18 09:56:27;;;;;;;2.60;2.40;;;20.00;37.60;;;;;;5064638;28;20535;-79
2022/04/18 09:58:57;;;;;;;6.13;2.77;;;20.00;37.00;;;;;;5068643;28;20204;-79
2022/04/18 10:01:33;;;;;;;11.13;2.50;;;20.10;36.70;;;;;;5065391;28;20658;-78
2022/04/18 10:04:05;;;;;;;5.20;2.57;;;20.20;37.50;;;;;;5064840;28;20591;-80
2022/04/18 10:06:33;;;;;;;3.73;2.30;;;20.40;37.00;;;;;;5068829;28;20203;-80
2022/04/18 10:09:01;;;;;;;4.33;2.50;;;20.40;35.70;;;;;;5064709;28;20327;-80
2022/04/18 10:11:28;;;;;;;5.07;2.83;;;20.50;36.10;;;;;;5067199;28;20205;-78
2022/04/18 10:13:56;;;;;;;48.73;32.97;;;20.50;36.00;;;;;;5078216;28;20719;-80
2022/04/18 10:16:25;;;;;;;11.77;6.60;;;20.60;36.90;;;;;;5045588;28;20217;-79
2022/04/18 10:18:58;;;;;;;701.57;599.10;;;20.60;33.80;;;;;;5063568;28;20221;-80
2022/04/18 10:21:31;;;;;;;173.17;143.87;;;20.40;35.60;;;;;;5064173;28;20282;-79
2022/04/18 10:24:26;;;;;;;984.13;729.90;;;20.40;34.90;;;;;;5076326;28;20195;-79
2022/04/18 10:27:13;;;;;;;719.50;599.23;;;20.40;36.00;;;;;;5064495;28;20209;-78
2022/04/18 10:29:50;;;;;;;801.70;686.00;;;20.50;36.40;;;;;;5064794;28;20201;-80
2022/04/18 10:32:22;;;;;;;106.30;78.57;;;20.50;34.80;;;;;;5045867;28;20241;-80
2022/04/18 10:34:52;;;;;;;173.53;154.70;;;20.60;35.60;;;;;;5060537;28;20213;-80
2022/04/18 10:37:25;;;;;;;31.83;27.10;;;20.60;34.00;;;;;;5060698;28;20212;-79
2022/04/18 10:40:06;;;;;;;5.23;2.83;;;20.60;34.10;;;;;;5064853;28;20210;-80
2022/04/18 10:42:36;;;;;;;80.33;57.13;;;20.50;34.10;;;;;;5054133;28;20206;-80
2022/04/18 10:45:17;;;;;;;48.53;38.37;;;20.40;35.30;;;;;;5077979;28;20584;-80
2022/04/18 10:48:05;;;;;;;35.63;32.03;;;20.30;37.00;;;;;;5068941;28;20304;-80
2022/04/18 10:50:41;;;;;;;20.23;10.53;;;20.40;36.80;;;;;;5062779;28;20293;-79
2022/04/18 10:53:10;;;;;;;4.07;3.03;;;20.60;36.30;;;;;;5064710;28;20266;-81
2022/04/18 10:56:02;;;;;;;45.33;40.87;;;20.70;36.70;;;;;;5064469;28;20221;-80
2022/04/18 10:58:31;;;;;;;7.03;4.57;;;20.90;37.10;;;;;;5063739;28;20231;-79
2022/04/18 11:01:01;;;;;;;6.67;6.07;;;21.00;37.20;;;;;;5069420;28;20630;-80
2022/04/18 11:03:37;;;;;;;17.80;13.33;;;21.00;36.70;;;;;;5055513;28;20211;-79
2022/04/18 11:06:21;;;;;;;6.23;5.13;;;20.90;34.40;;;;;;5062936;28;20201;-78
2022/04/18 11:09:09;;;;;;;5.33;4.03;;;20.80;35.20;;;;;;5066240;28;20239;-78
2022/04/18 11:11:43;;;;;;;8.80;4.47;;;20.80;36.80;;;;;;5065858;28;20204;-79
2022/04/18 11:14:19;;;;;;;21.80;15.67;;;20.90;34.70;;;;;;5075680;28;20208;-77
2022/04/18 11:16:46;;;;;;;4.13;2.67;;;20.80;34.10;;;;;;5069754;28;20205;-80
2022/04/18 11:19:14;;;;;;;2.67;2.27;;;20.70;33.20;;;;;;5048086;28;20246;-80
2022/04/18 11:21:57;;;;;;;3.80;3.30;;;20.50;33.60;;;;;;5060522;28;20588;-80
2022/04/18 11:24:46;;;;;;;7.27;3.23;;;20.40;34.80;;;;;;5063497;28;20208;-80
2022/04/18 11:27:20;;;;;;;3.97;2.87;;;20.30;35.60;;;;;;5062561;28;20240;-81
2022/04/18 11:29:55;;;;;;;12.67;8.43;;;20.30;34.00;;;;;;5065795;28;20267;-80
2022/04/18 11:32:28;;;;;;;4.70;2.63;;;20.30;34.90;;;;;;5066279;28;20196;-80
2022/04/18 11:34:58;;;;;;;79.60;58.80;;;20.30;34.20;;;;;;5080620;28;20221;-80
2022/04/18 11:37:48;;;;;;;407.20;274.03;;;20.30;35.30;;;;;;5068317;28;20204;-80
2022/04/18 11:40:17;;;;;;;210.70;67.70;;;20.40;36.90;;;;;;5076494;28;20271;-79
2022/04/18 11:42:45;;;;;;;202.73;70.60;;;20.40;37.40;;;;;;5062800;28;20205;-79
2022/04/18 11:45:26;;;;;;;78.27;48.37;;;20.50;37.00;;;;;;5063828;28;20224;-79
2022/04/18 11:47:54;;;;;;;243.87;135.90;;;20.70;36.40;;;;;;5079371;28;20319;-79
2022/04/18 11:50:22;;;;;;;133.50;78.53;;;20.90;36.50;;;;;;5046385;28;20247;-78
2022/04/18 11:53:03;;;;;;;32.00;20.23;;;21.10;37.20;;;;;;5062220;28;20197;-79
2022/04/18 11:55:31;;;;;;;265.37;150.90;;;21.30;36.10;;;;;;5065868;28;20216;-80
2022/04/18 11:57:58;;;;;;;32.63;21.57;;;21.40;34.70;;;;;;5058586;28;20205;-80
2022/04/18 12:08:50;;;;;;;63.17;33.73;;;21.50;34.00;;;;;;5070242;28;20324;-80
2022/04/18 12:11:18;;;;;;;4.17;3.23;;;21.40;34.60;;;;;;5063843;28;20206;-80
2022/04/18 12:13:48;;;;;;;23.27;14.37;;;21.20;32.80;;;;;;5065172;28;20201;-78
2022/04/18 12:16:20;;;;;;;7.57;3.97;;;21.10;34.40;;;;;;5063610;28;20892;-79
2022/04/18 12:18:54;;;;;;;20.20;13.00;;;21.10;34.60;;;;;;5069718;28;20217;-80
2022/04/18 12:21:24;;;;;;;7.57;4.37;;;21.10;35.30;;;;;;5076047;28;20208;-79
2022/04/18 12:23:53;;;;;;;12.40;8.93;;;21.10;35.10;;;;;;5063785;28;20647;-78
2022/04/18 12:26:28;;;;;;;10.67;6.70;;;21.00;35.20;;;;;;5076804;28;20202;-79
2022/04/18 12:29:04;;;;;;;24.60;14.77;;;20.90;34.90;;;;;;5063675;28;20204;-79
2022/04/18 12:31:32;;;;;;;46.20;25.50;;;21.00;35.30;;;;;;5061324;28;20229;-79
2022/04/18 12:33:59;;;;;;;16.40;9.07;;;21.00;34.70;;;;;;5062050;28;20224;-78
2022/04/18 12:36:35;;;;;;;9.40;3.43;;;21.10;34.30;;;;;;5062075;28;20195;-79
2022/04/18 12:39:05;;;;;;;27.03;15.97;;;21.10;34.00;;;;;;5058824;28;20228;-79
2022/04/18 12:41:38;;;;;;;9.53;6.30;;;21.20;34.60;;;;;;5059674;28;20198;-80
2022/04/18 12:44:14;;;;;;;3.17;2.27;;;21.30;32.30;;;;;;5063239;28;20197;-80
2022/04/18 12:46:42;;;;;;;23.67;15.07;;;21.20;31.70;;;;;;5076660;28;20355;-79
2022/04/18 12:49:11;;;;;;;9.17;5.93;;;21.10;33.90;;;;;;5069493;28;20625;-79
2022/04/18 12:51:48;;;;;;;16.90;8.80;;;21.10;33.20;;;;;;5058668;28;20232;-80
2022/04/18 12:54:20;;;;;;;58.43;38.03;;;21.10;33.40;;;;;;5061913;28;20197;-78
2022/04/18 12:56:48;;;;;;;8.73;6.73;;;21.20;34.30;;;;;;5065266;28;20216;-80
2022/04/18 12:59:30;;;;;;;19.50;10.97;;;21.20;34.10;;;;;;5064295;28;20712;-80
2022/04/18 13:02:10;;;;;;;38.33;24.67;;;21.20;34.40;;;;;;5065728;28;20205;-80
2022/04/18 13:04:40;;;;;;;13.60;10.47;;;21.20;33.50;;;;;;5065879;28;20219;-80
2022/04/18 13:07:10;;;;;;;20.50;15.93;;;21.20;33.90;;;;;;5060950;28;20262;-80
2022/04/18 13:09:37;;;;;;;8.37;4.93;;;21.20;35.40;;;;;;5061186;28;20210;-80
2022/04/18 13:12:06;;;;;;;14.63;10.87;;;21.20;35.90;;;;;;5065202;28;20319;-80
2022/04/18 13:14:54;;;;;;;15.73;11.43;;;21.30;35.00;;;;;;5065065;28;20299;-80
2022/04/18 13:17:23;;;;;;;4.60;3.63;;;21.40;35.00;;;;;;5052211;28;20213;-81
2022/04/18 13:19:50;;;;;;;2.00;1.80;;;21.40;33.60;;;;;;5064223;28;20276;-81
2022/04/18 13:22:17;;;;;;;7.07;2.13;;;21.30;32.60;;;;;;5066229;28;20197;-80
2022/04/18 13:24:45;;;;;;;3.60;2.27;;;21.20;33.50;;;;;;5074762;28;20210;-80
2022/04/18 13:27:27;;;;;;;4.33;1.90;;;21.10;33.90;;;;;;5059343;28;20201;-81
2022/04/18 13:29:54;;;;;;;4.73;1.90;;;21.10;33.90;;;;;;5064897;28;20209;-80
2022/04/18 13:32:24;;;;;;;2.60;1.67;;;21.00;33.80;;;;;;5063818;28;20204;-79
2022/04/18 13:34:53;;;;;;;5.30;2.97;;;21.00;33.40;;;;;;5058920;28;20198;-79
2022/04/18 13:37:24;;;;;;;8.63;4.10;;;20.90;33.80;;;;;;5067151;28;20213;-80
2022/04/18 13:39:52;;;;;;;2.63;2.20;;;20.90;35.20;;;;;;5062109;28;20305;-80
2022/04/18 13:42:19;;;;;;;19.97;13.77;;;20.90;35.50;;;;;;5049613;28;20231;-81
2022/04/18 13:44:46;;;;;;;17.30;9.90;;;21.00;35.50;;;;;;5064181;28;20306;-80
2022/04/18 13:47:16;;;;;;;8.80;4.47;;;21.10;35.80;;;;;;5079307;28;20225;-79
2022/04/18 13:49:43;;;;;;;4.83;2.93;;;21.20;35.60;;;;;;5063557;28;20218;-82